Time;durP1;ratioP1;P1;durP2;ratioP2;P2;SDS_P1;SDS_P2;PMS_P1;PMS_P2;Temp;Humidity;BMP_temperature;BMP_pressure;BME280_temperature;BME280_humidity;BME280_pressure;Samples;Min_cycle;Max_cycle;Signal;HPM_P1;HPM_P2
2022/12/30 00:01:31;;;;;;;5.00;4.57;;;;;;;4.80;100.00;100616.81;6128399;23;20006;-71
2022/12/30 00:03:58;;;;;;;3.85;3.55;;;;;;;5.36;100.00;100720.06;6143909;23;20025;-70
2022/12/30 00:06:25;;;;;;;3.97;3.78;;;;;;;5.81;100.00;100771.59;6135807;23;20028;-71
2022/12/30 00:08:57;;;;;;;3.55;3.45;;;;;;;5.80;100.00;100769.91;6140338;23;20060;-71
2022/12/30 00:11:28;;;;;;;3.60;3.40;;;;;;;5.88;100.00;100757.50;6119399;23;20030;-71
2022/12/30 00:34:21;;;;;;;4.20;3.72;;;;;;;5.71;100.00;100791.00;6139180;23;20021;-70
2022/12/30 00:36:49;;;;;;;4.95;3.70;;;;;;;5.38;100.00;100733.88;6149699;23;20024;-71
2022/12/30 00:39:16;;;;;;;3.20;3.10;;;;;;;5.71;100.00;100789.28;6142285;23;20041;-72
2022/12/30 00:44:28;;;;;;;3.90;3.60;;;;;;;5.53;100.00;100782.88;6132938;23;20033;-74
2022/12/30 00:46:56;;;;;;;3.72;3.58;;;;;;;5.54;100.00;100784.56;6144167;23;20479;-71
2022/12/30 00:57:41;;;;;;;6.25;5.15;;;;;;;5.60;100.00;100781.78;6136279;23;20070;-71
2022/12/30 01:00:12;;;;;;;3.20;3.10;;;;;;;5.55;100.00;100778.47;6137744;23;20231;-71
2022/12/30 01:02:38;;;;;;;4.05;3.80;;;;;;;5.53;100.00;100792.41;6086616;23;20021;-71
2022/12/30 01:05:05;;;;;;;4.70;3.42;;;;;;;5.55;100.00;100794.09;6114051;23;20032;-70
2022/12/30 01:07:32;;;;;;;4.43;4.18;;;;;;;5.29;100.00;100775.78;6138622;23;20089;-71
2022/12/30 01:10:00;;;;;;;3.72;3.53;;;;;;;4.77;100.00;100674.09;6121474;23;20033;-71
2022/12/30 01:12:29;;;;;;;3.50;3.40;;;;;;;5.48;100.00;100795.16;6132310;23;20045;-71
2022/12/30 01:14:56;;;;;;;4.07;3.83;;;;;;;5.43;100.00;100791.00;6139045;23;20010;-71
2022/12/30 01:17:26;;;;;;;7.90;4.28;;;;;;;5.16;100.00;100760.53;6132646;23;20013;-72
2022/12/30 01:19:55;;;;;;;;;;;;;;;5.33;100.00;100790.41;6137889;23;20056;-74
2022/12/30 01:22:22;;;;;;;3.22;3.13;;;;;;;5.31;100.00;100797.41;6136903;23;19909;-74
2022/12/30 01:24:48;;;;;;;3.85;3.55;;;;;;;4.67;100.00;100715.09;6117719;23;20028;-73
2022/12/30 01:27:16;;;;;;;3.72;3.40;;;;;;;5.09;100.00;100781.53;6140351;23;20021;-72
2022/12/30 01:29:43;;;;;;;4.15;3.85;;;;;;;5.19;100.00;100791.66;6138057;23;20349;-72
2022/12/30 01:32:16;;;;;;;3.40;3.30;;;;;;;4.00;100.00;100604.31;6132475;23;20021;-71
2022/12/30 01:34:43;;;;;;;3.50;3.40;;;;;;;5.16;100.00;100802.16;6132218;23;20028;-71
2022/12/30 01:37:13;;;;;;;8.80;3.78;;;;;;;5.03;100.00;100789.53;6136596;23;20500;-71
2022/12/30 01:39:40;;;;;;;4.20;3.58;;;;;;;5.06;100.00;100798.09;6142450;23;21335;-70
2022/12/30 01:42:16;;;;;;;3.38;3.28;;;;;;;4.51;100.00;100716.38;6140694;23;20040;-71
2022/12/30 01:44:49;;;;;;;3.80;3.50;;;;;;;4.96;100.00;100804.44;6134203;23;20085;-70
2022/12/30 01:47:41;;;;;;;3.75;3.53;;;;;;;4.87;100.00;100807.28;6121923;23;20025;-73
2022/12/30 01:50:10;;;;;;;3.85;3.40;;;;;;;4.87;100.00;100812.50;6141617;23;20053;-72
2022/12/30 01:52:56;;;;;;;3.80;3.50;;;;;;;4.77;100.00;100812.75;6091007;17;20579;-70
2022/12/30 01:55:37;;;;;;;3.20;3.08;;;;;;;4.69;100.00;100819.03;6063796;23;20023;-71
2022/12/30 01:58:33;;;;;;;3.30;3.10;;;;;;;4.69;100.00;100826.81;6058030;23;20088;-71
2022/12/30 02:01:02;;;;;;;6.55;3.72;;;;;;;4.68;100.00;100812.97;6064888;23;20046;-72
2022/12/30 02:03:52;;;;;;;3.67;3.47;;;;;;;4.46;100.00;100776.28;6031886;23;20399;-72
2022/12/30 02:07:00;;;;;;;3.35;3.25;;;;;;;4.58;100.00;100801.13;6020558;23;20031;-73
2022/12/30 02:09:29;;;;;;;3.47;3.38;;;;;;;4.44;100.00;100783.28;6030959;23;20019;-71
2022/12/30 02:11:57;;;;;;;3.38;3.28;;;;;;;4.50;100.00;100785.72;6032183;23;20085;-71
2022/12/30 02:14:27;;;;;;;4.72;3.42;;;;;;;4.55;100.00;100788.19;5999934;23;20592;-71
2022/12/30 02:17:26;;;;;;;5.32;3.65;;;;;;;4.35;100.00;100753.19;6025367;23;20395;-72
2022/12/30 02:20:26;;;;;;;6.85;4.18;;;;;;;4.62;100.00;100796.69;5963834;23;20097;-72
2022/12/30 02:23:17;;;;;;;3.22;3.13;;;;;;;4.63;100.00;100809.66;6028372;23;20185;-71
2022/12/30 02:26:02;;;;;;;3.40;3.30;;;;;;;4.64;100.00;100795.75;6028673;23;20023;-71
2022/12/30 02:28:56;;;;;;;4.13;3.83;;;;;;;4.59;100.00;100806.28;6011363;23;20393;-72
2022/12/30 02:31:22;;;;;;;3.45;3.35;;;;;;;4.63;100.00;100814.88;6024996;23;20259;-73
2022/12/30 02:33:52;;;;;;;3.80;3.60;;;;;;;4.57;100.00;100820.19;6027050;23;20097;-73
2022/12/30 02:36:32;;;;;;;4.50;3.53;;;;;;;4.12;100.00;100745.13;6000197;23;20397;-73
2022/12/30 02:39:07;;;;;;;3.28;3.15;;;;;;;4.58;100.00;100827.94;6045686;23;20026;-73
2022/12/30 02:44:39;;;;;;;4.05;3.75;;;;;;;4.53;100.00;100816.84;6026903;23;20093;-73
2022/12/30 02:47:19;;;;;;;3.42;3.33;;;;;;;3.85;100.00;100718.06;6027181;23;20037;-73
2022/12/30 02:52:14;;;;;;;4.05;3.85;;;;;;;3.92;100.00;100725.69;6005923;23;20179;-73
2022/12/30 02:52:39;;;;;;;3.85;3.65;;;;;;;4.38;100.00;100814.63;6030516;23;20135;-71
2022/12/30 02:55:07;;;;;;;3.30;3.20;;;;;;;4.33;100.00;100806.06;6001684;23;20026;-71
2022/12/30 02:57:35;;;;;;;3.50;3.30;;;;;;;4.29;100.00;100801.84;6030817;23;20326;-73
2022/12/30 03:06:00;;;;;;;3.60;3.50;;;;;;;4.21;100.00;100799.44;6002955;23;20019;-73
2022/12/30 03:08:42;;;;;;;7.95;4.07;;;;;;;3.96;100.00;100792.22;6001173;23;20043;-72
2022/12/30 03:11:17;;;;;;;3.13;3.03;;;;;;;3.74;100.00;100757.28;6025915;23;20650;-73
2022/12/30 03:13:56;;;;;;;3.65;3.55;;;;;;;3.96;100.00;100796.56;6031845;23;20030;-73
2022/12/30 03:16:32;;;;;;;3.30;3.20;;;;;;;3.23;100.00;100695.28;6026639;23;20053;-73
2022/12/30 03:19:02;;;;;;;3.70;3.40;;;;;;;3.82;100.00;100804.66;6013959;23;20146;-73
2022/12/30 03:21:33;;;;;;;3.50;3.40;;;;;;;3.74;100.00;100798.81;6032745;23;20019;-73
2022/12/30 03:27:05;;;;;;;3.53;3.33;;;;;;;3.09;100.00;100687.81;6031548;23;20142;-73
2022/12/30 03:29:39;;;;;;;4.05;3.75;;;;;;;3.63;100.00;100785.19;5999545;23;20035;-73
2022/12/30 03:32:10;;;;;;;3.60;3.40;;;;;;;3.65;100.00;100783.41;6032722;23;20052;-73
2022/12/30 03:34:38;;;;;;;4.35;4.05;;;;;;;3.03;100.00;100682.75;6027845;23;20025;-73
2022/12/30 03:37:26;;;;;;;4.07;3.83;;;;;;;3.64;100.00;100768.75;6006292;23;20609;-73
2022/12/30 03:40:21;;;;;;;13.48;12.65;;;;;;;3.66;100.00;100769.56;5982841;23;20086;-73
2022/12/30 03:42:51;;;;;;;3.40;3.30;;;;;;;3.19;100.00;100684.13;5971872;23;20102;-73
2022/12/30 03:45:18;;;;;;;3.22;3.13;;;;;;;3.59;100.00;100761.94;6003007;23;20022;-73
2022/12/30 03:47:44;;;;;;;5.57;5.28;;;;;;;2.69;100.00;100632.47;6029860;23;20018;-73
2022/12/30 03:50:11;;;;;;;6.38;5.13;;;;;;;3.50;100.00;100761.28;6028735;23;20056;-73
2022/12/30 03:52:38;;;;;;;12.02;4.15;;;;;;;3.40;100.00;100764.06;6015062;23;20114;-73
2022/12/30 03:55:05;;;;;;;3.50;3.20;;;;;;;2.70;100.00;100660.09;6026668;23;20021;-72
2022/12/30 03:57:32;;;;;;;4.10;3.80;;;;;;;2.71;100.00;100669.56;6028647;23;20018;-74
2022/12/30 03:59:59;;;;;;;3.10;3.00;;;;;;;3.26;100.00;100753.13;6029823;23;20118;-73
2022/12/30 04:02:25;;;;;;;3.50;3.30;;;;;;;3.20;100.00;100759.28;6002029;23;20176;-73
2022/12/30 04:04:53;;;;;;;5.47;3.15;;;;;;;2.82;100.00;100699.59;6025697;23;20019;-73
2022/12/30 04:07:20;;;;;;;3.15;3.05;;;;;;;3.15;100.00;100755.09;6002921;23;20094;-71
2022/12/30 04:09:47;;;;;;;3.47;3.38;;;;;;;2.85;100.00;100710.78;6027532;23;20022;-70
2022/12/30 04:12:13;;;;;;;3.30;3.20;;;;;;;3.00;100.00;100736.34;6000488;23;20060;-72
2022/12/30 04:14:39;;;;;;;3.80;3.60;;;;;;;2.51;100.00;100661.34;6026943;23;20011;-71
2022/12/30 04:17:06;;;;;;;3.10;3.00;;;;;;;1.65;100.00;100505.94;6027402;23;20026;-71
2022/12/30 04:19:32;;;;;;;3.40;3.30;;;;;;;2.95;100.00;100732.19;6029558;23;20035;-71
2022/12/30 04:21:59;;;;;;;3.70;3.50;;;;;;;2.93;100.00;100734.78;6034554;23;20030;-70
2022/12/30 04:24:25;;;;;;;3.75;3.55;;;;;;;2.49;100.00;100660.53;6029638;23;20027;-71
2022/12/30 04:26:52;;;;;;;3.20;3.10;;;;;;;2.87;100.00;100731.47;6028085;23;20018;-71
2022/12/30 04:29:18;;;;;;;3.65;3.45;;;;;;;0.91;100.00;100414.19;6027373;23;20038;-71
2022/12/30 04:31:45;;;;;;;4.15;3.95;;;;;;;2.31;100.00;100647.03;6026967;23;20030;-71
2022/12/30 04:34:14;;;;;;;4.30;4.03;;;;;;;2.82;100.00;100722.94;6030459;23;20058;-72
2022/12/30 04:36:42;;;;;;;3.40;3.30;;;;;;;2.53;100.00;100693.25;5984776;23;20033;-71
2022/12/30 04:39:08;;;;;;;3.67;3.30;;;;;;;2.53;100.00;100688.94;6030939;23;20092;-70
2022/12/30 04:41:35;;;;;;;4.07;3.88;;;;;;;2.68;100.00;100705.06;6000661;23;20039;-71
2022/12/30 04:44:05;;;;;;;3.20;3.10;;;;;;;2.12;100.00;100614.59;6024955;23;20014;-71
2022/12/30 04:46:32;;;;;;;3.25;3.15;;;;;;;2.65;100.00;100702.53;5999520;23;20027;-71
2022/12/30 04:48:59;;;;;;;4.20;3.90;;;;;;;2.20;100.00;100648.97;6029068;23;20227;-72
2022/12/30 04:51:26;;;;;;;3.13;3.03;;;;;;;2.76;100.00;100731.66;6011205;23;20019;-71
2022/12/30 04:53:52;;;;;;;3.47;3.28;;;;;;;2.28;100.00;100661.78;6058442;23;20255;-71
2022/12/30 04:56:19;;;;;;;3.03;2.92;;;;;;;2.56;100.00;100695.78;6052833;23;20085;-71
2022/12/30 04:58:51;;;;;;;3.20;3.10;;;;;;;2.69;100.00;100724.91;6057288;23;20026;-71
2022/12/30 05:01:17;;;;;;;3.00;2.90;;;;;;;2.72;100.00;100735.19;6058883;23;20022;-71
2022/12/30 05:03:44;;;;;;;3.42;3.33;;;;;;;2.32;100.00;100676.38;6058662;23;20038;-70
2022/12/30 05:06:11;;;;;;;3.70;3.50;;;;;;;2.68;100.00;100747.34;6057455;23;20488;-71
2022/12/30 05:08:37;;;;;;;6.25;4.32;;;;;;;2.66;100.00;100743.94;6036729;23;20046;-71
2022/12/30 05:11:04;;;;;;;2.97;2.88;;;;;;;2.65;100.00;100749.19;6055502;23;20021;-71
2022/12/30 05:13:31;;;;;;;8.77;3.40;;;;;;;2.61;100.00;100761.31;6028043;23;20513;-71
2022/12/30 05:15:57;;;;;;;3.50;3.20;;;;;;;2.58;100.00;100751.84;6056309;23;20434;-73
2022/12/30 05:18:23;;;;;;;3.63;3.42;;;;;;;2.08;100.00;100662.13;6059219;23;20495;-72
2022/12/30 05:20:50;;;;;;;3.25;3.15;;;;;;;2.60;100.00;100741.47;6058074;23;20182;-74
2022/12/30 05:26:13;;;;;;;2.95;2.85;;;;;;;2.58;100.00;100733.72;6056946;23;20010;-73
2022/12/30 05:28:41;;;;;;;3.28;3.17;;;;;;;2.60;100.00;100742.31;6003346;23;20556;-73
2022/12/30 05:31:07;;;;;;;3.10;3.00;;;;;;;2.63;100.00;100751.78;6027201;23;20463;-73
2022/12/30 05:33:34;;;;;;;3.20;3.10;;;;;;;1.69;100.00;100581.75;6028521;23;20031;-73
2022/12/30 05:36:00;;;;;;;3.22;3.13;;;;;;;2.64;100.00;100737.09;6052748;23;20091;-73
2022/12/30 05:38:27;;;;;;;3.20;3.10;;;;;;;2.62;100.00;100738.84;6029523;23;20163;-70
2022/12/30 05:40:53;;;;;;;4.60;4.30;;;;;;;2.37;100.00;100737.56;6056432;23;20662;-72
2022/12/30 05:43:20;;;;;;;3.25;3.15;;;;;;;1.44;100.00;100558.88;6000225;23;20547;-72
2022/12/30 05:45:46;;;;;;;3.78;3.58;;;;;;;2.48;100.00;100720.97;6057215;23;20018;-71
2022/12/30 05:48:13;;;;;;;3.80;3.60;;;;;;;2.43;100.00;100723.66;6057061;23;20034;-70
2022/12/30 05:50:40;;;;;;;3.28;3.17;;;;;;;2.27;100.00;100681.66;6056531;23;20139;-71
2022/12/30 05:53:06;;;;;;;3.00;2.90;;;;;;;1.43;100.00;100531.31;6058316;23;20035;-71
2022/12/30 05:55:33;;;;;;;3.00;2.90;;;;;;;1.93;100.00;100599.41;6033269;23;20088;-71
2022/12/30 05:57:59;;;;;;;3.40;3.20;;;;;;;1.95;100.00;100613.19;6054907;23;20074;-71
2022/12/30 06:00:26;;;;;;;3.20;3.10;;;;;;;2.57;100.00;100689.72;6057841;23;20030;-72
2022/12/30 06:02:52;;;;;;;3.42;3.33;;;;;;;2.20;100.00;100628.25;6049693;23;20406;-70
2022/12/30 06:05:19;;;;;;;3.00;2.90;;;;;;;1.33;100.00;100491.00;6008770;23;20447;-71
2022/12/30 06:07:45;;;;;;;3.70;3.50;;;;;;;2.31;100.00;100652.22;6056679;23;20227;-70
2022/12/30 06:10:12;;;;;;;3.28;3.17;;;;;;;2.53;100.00;100672.53;6052803;23;20824;-71
2022/12/30 06:12:38;;;;;;;3.33;3.22;;;;;;;1.79;100.00;100555.69;6032751;23;20027;-70
2022/12/30 06:15:05;;;;;;;3.80;3.60;;;;;;;2.27;100.00;100623.84;6056405;23;20016;-71
2022/12/30 06:17:32;;;;;;;4.00;3.75;;;;;;;2.82;100.00;100694.41;6029553;23;20948;-70
2022/12/30 06:19:58;;;;;;;4.70;4.40;;;;;;;2.85;100.00;100684.84;6055654;23;20029;-69
2022/12/30 06:22:25;;;;;;;3.95;3.75;;;;;;;2.28;100.00;100573.75;6027933;23;20018;-71
2022/12/30 06:24:51;;;;;;;4.50;4.30;;;;;;;2.36;100.00;100583.06;6056348;23;20018;-70
2022/12/30 06:27:18;;;;;;;6.60;3.40;;;;;;;2.57;100.00;100617.19;6032571;23;20245;-70
2022/12/30 06:29:45;;;;;;;3.70;3.50;;;;;;;2.96;100.00;100684.63;6033782;23;20461;-71
2022/12/30 06:32:11;;;;;;;4.05;3.60;;;;;;;2.93;100.00;100690.72;6061389;23;20449;-71
2022/12/30 06:34:37;;;;;;;3.40;3.30;;;;;;;2.46;100.00;100624.31;6037640;23;20030;-70
2022/12/30 06:37:04;;;;;;;3.10;3.00;;;;;;;2.72;100.00;100662.66;6065860;23;20014;-70
2022/12/30 06:39:30;;;;;;;4.22;3.92;;;;;;;2.89;100.00;100693.41;6033368;23;20023;-71
2022/12/30 06:41:56;;;;;;;3.85;3.65;;;;;;;2.89;100.00;100696.84;6060187;23;20037;-71
2022/12/30 06:44:23;;;;;;;3.65;3.45;;;;;;;2.87;100.00;100713.34;6059373;23;20082;-69
2022/12/30 06:46:52;;;;;;;3.35;3.25;;;;;;;0.96;100.00;100381.38;6065115;23;20030;-71
2022/12/30 06:49:18;;;;;;;3.28;3.08;;;;;;;2.89;100.00;100678.72;6061730;23;20026;-70
2022/12/30 06:51:45;;;;;;;3.35;3.22;;;;;;;2.33;100.00;100588.31;6065305;23;20094;-72
2022/12/30 06:54:11;;;;;;;3.97;3.67;;;;;;;2.97;100.00;100670.78;6041791;23;20034;-72
2022/12/30 06:56:38;;;;;;;3.10;3.00;;;;;;;2.41;100.00;100575.22;6043379;23;20042;-70
2022/12/30 06:59:04;;;;;;;2.95;2.85;;;;;;;2.95;100.00;100644.88;6032493;23;20043;-70
2022/12/30 07:01:30;;;;;;;3.90;3.45;;;;;;;3.11;100.00;100653.19;6049713;23;20018;-69
2022/12/30 07:03:57;;;;;;;3.33;3.22;;;;;;;1.82;100.00;100420.22;6058795;23;20026;-70
2022/12/30 07:06:24;;;;;;;3.05;2.95;;;;;;;3.25;100.00;100642.50;6059711;23;20025;-71
2022/12/30 07:08:50;;;;;;;4.72;4.40;;;;;;;2.77;100.00;100578.75;6068351;23;20018;-70
2022/12/30 07:11:19;;;;;;;3.22;3.13;;;;;;;2.88;100.00;100629.50;6055906;23;20025;-71
2022/12/30 07:13:45;;;;;;;3.30;3.20;;;;;;;2.58;100.00;100569.66;6057096;23;20025;-71
2022/12/30 07:16:12;;;;;;;3.30;3.20;;;;;;;3.06;100.00;100649.81;6059020;23;20383;-71
2022/12/30 07:18:39;;;;;;;4.13;3.83;;;;;;;3.06;100.00;100662.78;6039573;23;20095;-70
2022/12/30 07:21:05;;;;;;;3.05;2.95;;;;;;;3.06;100.00;100656.75;6061955;23;20045;-70
2022/12/30 07:23:31;;;;;;;3.38;3.13;;;;;;;3.04;100.00;100651.59;6032067;23;20034;-73
2022/12/30 07:25:58;;;;;;;5.00;4.53;;;;;;;3.10;100.00;100655.81;6063460;23;20074;-73
2022/12/30 07:28:24;;;;;;;3.20;3.10;;;;;;;2.91;100.00;100621.66;6031546;23;20041;-73
2022/12/30 07:30:51;;;;;;;3.47;3.20;;;;;;;3.10;100.00;100682.56;6059145;23;20401;-73
2022/12/30 07:33:17;;;;;;;3.50;3.30;;;;;;;2.79;100.00;100596.88;6060560;23;20457;-73
2022/12/30 07:35:44;;;;;;;3.15;3.05;;;;;;;3.05;100.00;100631.69;6057960;23;20509;-73
2022/12/30 07:38:10;;;;;;;3.95;3.75;;;;;;;3.03;100.00;100616.22;6054634;23;20421;-73
2022/12/30 07:40:36;;;;;;;3.45;3.33;;;;;;;3.10;100.00;100609.13;6022866;23;20023;-73
2022/12/30 07:43:03;;;;;;;4.40;4.10;;;;;;;3.22;100.00;100616.63;6059077;23;20158;-72
2022/12/30 07:45:29;;;;;;;3.10;3.00;;;;;;;3.22;100.00;100621.81;6030292;23;20026;-74
2022/12/30 07:47:59;;;;;;;3.42;3.33;;;;;;;3.09;100.00;100595.31;6058178;23;20449;-74
2022/12/30 07:50:26;;;;;;;3.30;3.10;;;;;;;3.26;100.00;100625.19;6058882;23;20206;-73
2022/12/30 07:52:52;;;;;;;3.70;3.50;;;;;;;3.08;100.00;100585.81;6031577;23;20601;-74
2022/12/30 07:55:19;;;;;;;3.13;3.03;;;;;;;3.42;100.00;100617.91;6031984;23;20054;-72
2022/12/30 07:57:46;;;;;;;4.05;3.75;;;;;;;3.47;100.00;100619.50;6004901;23;20691;-74
2022/12/30 08:00:13;;;;;;;3.03;2.92;;;;;;;3.54;100.00;100612.41;6030526;23;20039;-72
2022/12/30 08:02:39;;;;;;;3.50;3.30;;;;;;;3.39;100.00;100592.91;6026453;23;20022;-74
2022/12/30 08:05:07;;;;;;;3.78;3.47;;;;;;;3.30;100.00;100544.69;6027083;23;20078;-74
2022/12/30 08:07:35;;;;;;;3.20;3.10;;;;;;;3.64;100.00;100584.50;6015874;23;20191;-72
2022/12/30 08:10:01;;;;;;;3.97;3.78;;;;;;;3.86;100.00;100603.81;6010591;23;20018;-74
2022/12/30 08:12:28;;;;;;;3.00;2.90;;;;;;;3.92;100.00;100603.66;6028089;23;20030;-72
2022/12/30 08:14:54;;;;;;;3.83;3.63;;;;;;;3.52;100.00;100549.34;6028067;23;20018;-73
2022/12/30 08:17:21;;;;;;;3.35;3.25;;;;;;;3.79;100.00;100589.31;6029732;23;20034;-73
2022/12/30 08:19:47;;;;;;;4.68;3.80;;;;;;;4.07;100.00;100604.13;6029230;23;20245;-74
2022/12/30 08:22:13;;;;;;;4.45;4.25;;;;;;;4.16;100.00;100603.91;6029416;23;20106;-69
2022/12/30 08:24:40;;;;;;;3.28;3.17;;;;;;;2.82;100.00;100378.25;6000174;23;20234;-69
2022/12/30 08:27:06;;;;;;;4.18;3.97;;;;;;;4.25;100.00;100605.38;6029847;23;20296;-70
2022/12/30 08:29:33;;;;;;;3.67;3.40;;;;;;;3.67;100.00;100493.56;6028457;23;20110;-70
2022/12/30 08:31:59;;;;;;;3.80;3.60;;;;;;;3.66;100.00;100473.72;6027036;23;20466;-69
2022/12/30 08:34:26;;;;;;;3.72;3.58;;;;;;;3.67;100.00;100462.44;6007402;23;20019;-70
2022/12/30 08:36:52;;;;;;;4.05;3.85;;;;;;;4.43;100.00;100586.72;6022791;23;20081;-69
2022/12/30 08:39:19;;;;;;;5.05;4.75;;;;;;;4.42;100.00;100568.56;5999795;23;20498;-70
2022/12/30 08:41:46;;;;;;;4.32;3.60;;;;;;;4.56;100.00;100580.22;6029722;23;20046;-70
2022/12/30 08:44:21;;;;;;;3.13;3.03;;;;;;;4.66;100.00;100580.81;6007802;23;20399;-70
2022/12/30 08:46:48;;;;;;;3.20;3.10;;;;;;;4.78;100.00;100577.00;6029614;23;20057;-70
2022/12/30 08:49:14;;;;;;;3.30;3.20;;;;;;;4.82;100.00;100567.38;6027747;23;20018;-69
2022/12/30 08:51:41;;;;;;;3.63;3.42;;;;;;;4.83;100.00;100572.53;6008379;23;20202;-70
2022/12/30 08:54:07;;;;;;;6.60;3.72;;;;;;;4.81;100.00;100571.69;6010632;23;20496;-69
2022/12/30 08:56:36;;;;;;;3.22;3.13;;;;;;;4.94;100.00;100575.63;6033806;23;20015;-73
2022/12/30 08:59:03;;;;;;;3.88;3.58;;;;;;;4.68;100.00;100534.84;6032871;23;20034;-74
2022/12/30 09:01:36;;;;;;;3.42;3.33;;;;;;;4.75;100.00;100507.78;6005684;23;20018;-74
2022/12/30 09:04:06;;;;;;;3.28;3.17;;;;;;;4.75;100.00;100489.56;6008871;23;20086;-73
2022/12/30 09:06:35;;;;;;;8.13;3.65;;;;;;;5.43;100.00;100573.22;6029973;23;20030;-74
2022/12/30 09:09:04;;;;;;;3.78;3.55;;;;;;;4.91;100.00;100483.88;5974768;23;20078;-73
2022/12/30 09:11:32;;;;;;;4.00;3.70;;;;;;;5.61;100.00;100561.34;6027599;23;20050;-73
2022/12/30 09:14:01;;;;;;;6.80;4.20;;;;;;;5.68;100.00;100568.06;6009251;23;20149;-74
2022/12/30 09:16:30;;;;;;;3.80;3.50;;;;;;;5.87;100.00;100563.03;6036331;23;20451;-72
2022/12/30 09:18:58;;;;;;;3.50;3.40;;;;;;;6.01;100.00;100554.78;6025039;23;20010;-69
2022/12/30 09:21:24;;;;;;;3.85;3.65;;;;;;;6.14;100.00;100563.03;6030178;23;20469;-69
2022/12/30 09:23:51;;;;;;;6.53;3.55;;;;;;;6.05;100.00;100519.06;6035904;23;20538;-69
2022/12/30 09:26:20;;;;;;;5.35;3.53;;;;;;;6.49;100.00;100561.72;6029715;23;20466;-70
2022/12/30 09:28:47;;;;;;;3.40;3.30;;;;;;;6.49;100.00;100516.56;6025070;23;20031;-70
2022/12/30 09:31:14;;;;;;;4.13;3.83;;;;;;;6.88;100.00;100544.63;6025576;23;20687;-69
2022/12/30 09:33:41;;;;;;;3.83;3.53;;;;;;;7.06;100.00;100550.88;6029513;23;20430;-69
2022/12/30 09:36:08;;;;;;;3.38;3.28;;;;;;;6.84;100.00;100490.88;6028597;23;20168;-70
2022/12/30 09:38:35;;;;;;;3.70;3.60;;;;;;;7.26;100.00;100535.25;5997378;23;20052;-70
2022/12/30 09:43:15;;;;;;;3.95;3.75;;;;;;;7.29;100.00;100526.44;6029753;23;20492;-71
2022/12/30 09:44:54;;;;;;;3.50;3.40;;;;;;;7.08;100.00;100457.72;6029658;23;20057;-70
2022/12/30 09:47:26;;;;;;;3.80;3.60;;;;;;;7.23;100.00;100461.44;5966595;23;20382;-70
2022/12/30 09:50:01;;;;;;;3.65;3.50;;;;;;;7.56;100.00;100488.72;6028751;23;20428;-70
2022/12/30 09:52:33;;;;;;;4.15;3.88;;;;;;;7.47;100.00;100489.09;6026037;23;20027;-69
2022/12/30 09:55:10;;;;;;;4.22;4.03;;;;;;;7.52;100.00;100489.78;6027227;23;20027;-69
2022/12/30 09:57:37;;;;;;;3.67;3.50;;;;;;;7.58;100.00;100478.22;6024767;23;20390;-69
2022/12/30 10:00:17;;;;;;;4.53;4.30;;;;;;;7.23;100.00;100409.25;6003517;23;20077;-70
2022/12/30 10:03:16;;;;;;;4.03;3.70;;;;;;;7.71;100.00;100479.38;6027951;23;20023;-69
2022/12/30 10:06:27;;;;;;;4.25;4.05;;;;;;;7.78;100.00;100466.91;6007870;23;20011;-69
2022/12/30 10:09:27;;;;;;;4.20;4.00;;;;;;;7.64;100.00;100430.94;6024236;23;20018;-68
2022/12/30 10:12:03;;;;;;;7.35;3.90;;;;;;;8.03;100.00;100453.56;5994916;23;20114;-69
2022/12/30 10:14:47;;;;;;;4.00;3.80;;;;;;;7.61;100.00;100397.09;6031021;23;20487;-70
2022/12/30 10:17:44;;;;;;;4.25;3.95;;;;;;;8.08;100.00;100458.56;6021136;23;20027;-69
2022/12/30 10:20:23;;;;;;;4.50;4.30;;;;;;;6.86;100.00;100242.09;6024600;23;20578;-70
2022/12/30 10:23:03;;;;;;;4.35;4.05;;;;;;;8.18;100.00;100439.81;6026495;23;20086;-69
2022/12/30 10:25:52;;;;;;;3.75;3.63;;;;;;;7.94;100.00;100389.53;6026802;23;20444;-69
2022/12/30 10:28:27;;;;;;;4.03;3.70;;;;;;;8.15;100.00;100433.88;6028389;23;20410;-70
2022/12/30 10:30:53;;;;;;;3.70;3.50;;;;;;;7.93;100.00;100374.75;6027205;23;20089;-70
2022/12/30 10:33:21;;;;;;;6.90;4.32;;;;;;;8.38;100.00;100431.03;5996970;23;20042;-70
2022/12/30 10:35:53;;;;;;;4.43;4.03;;;;;;;8.25;100.00;100403.75;6026967;23;20101;-70
2022/12/30 10:38:28;;;;;;;4.05;3.85;;;;;;;8.05;100.00;100369.88;6023394;23;20178;-70
2022/12/30 10:41:15;;;;;;;4.60;4.10;;;;;;;8.32;100.00;100412.19;6026035;23;20130;-70
2022/12/30 10:44:05;;;;;;;4.50;4.03;;;;;;;8.30;100.00;100414.84;5998997;23;20300;-70
2022/12/30 10:46:40;;;;;;;3.95;3.75;;;;;;;8.29;100.00;100397.47;5997830;23;20256;-70
2022/12/30 10:49:50;;;;;;;4.00;3.80;;;;;;;8.32;100.00;100399.09;6026491;23;20026;-70
2022/12/30 10:52:16;;;;;;;8.70;3.70;;;;;;;8.29;99.87;100391.41;6030778;23;20865;-69
2022/12/30 10:54:44;;;;;;;3.95;3.75;;;;;;;7.89;100.00;100327.94;6055007;23;20237;-69
2022/12/30 10:57:14;;;;;;;10.30;4.00;;;;;;;8.32;100.00;100372.97;6055979;23;20448;-69
2022/12/30 10:59:41;;;;;;;4.13;3.92;;;;;;;8.30;100.00;100373.03;6054903;23;20488;-70
2022/12/30 11:02:22;;;;;;;4.20;4.00;;;;;;;8.26;99.04;100358.41;6034095;23;20023;-69
2022/12/30 11:04:49;;;;;;;4.90;4.50;;;;;;;7.02;98.59;100234.44;6058860;23;20022;-70
2022/12/30 11:07:16;;;;;;;4.47;4.20;;;;;;;8.23;98.52;100332.41;6034335;23;20026;-70
2022/12/30 11:09:44;;;;;;;4.38;4.18;;;;;;;8.22;98.43;100329.84;6061077;23;20019;-68
2022/12/30 11:15:18;;;;;;;4.20;4.00;;;;;;;8.23;96.85;100306.25;6058868;23;20006;-69
2022/12/30 11:17:46;;;;;;;4.93;4.63;;;;;;;8.17;96.54;100288.25;6056171;23;20469;-69
2022/12/30 11:20:13;;;;;;;8.52;4.97;;;;;;;8.24;96.17;100275.72;6056661;23;20144;-69
2022/12/30 11:22:53;;;;;;;4.10;3.90;;;;;;;8.24;96.47;100278.34;6059364;23;20184;-70
2022/12/30 11:25:29;;;;;;;5.72;3.90;;;;;;;8.24;96.64;100273.13;6059090;23;20091;-70
2022/12/30 11:27:59;;;;;;;4.13;3.92;;;;;;;7.83;96.14;100202.84;6060173;23;20085;-69
2022/12/30 11:30:31;;;;;;;4.40;4.13;;;;;;;8.18;96.27;100269.91;6057899;23;20092;-68
2022/12/30 11:33:01;;;;;;;6.77;4.40;;;;;;;7.97;97.31;100223.91;6055087;23;20030;-69
2022/12/30 11:35:41;;;;;;;3.92;3.72;;;;;;;8.19;97.34;100255.88;6058384;23;20025;-70
2022/12/30 11:38:30;;;;;;;4.47;4.07;;;;;;;7.81;96.48;100173.31;6055954;23;20068;-69
2022/12/30 11:41:14;;;;;;;3.83;3.70;;;;;;;8.34;95.83;100248.22;6056306;23;20084;-69
2022/12/30 11:43:40;;;;;;;4.15;3.92;;;;;;;8.27;96.27;100223.31;6033294;23;20115;-70
2022/12/30 11:46:10;;;;;;;4.10;3.90;;;;;;;8.28;95.86;100212.78;6026093;23;20014;-69
2022/12/30 11:48:43;;;;;;;4.30;4.00;;;;;;;8.29;95.98;100217.06;6039379;23;20033;-70
2022/12/30 11:51:21;;;;;;;4.72;4.43;;;;;;;8.27;95.62;100205.00;6060169;23;20079;-69
2022/12/30 11:53:49;;;;;;;3.97;3.78;;;;;;;7.87;95.28;100121.59;6037310;23;20060;-70
2022/12/30 11:56:21;;;;;;;9.40;4.30;;;;;;;8.14;94.72;100134.22;6056800;23;20323;-69
2022/12/30 11:58:48;;;;;;;4.22;4.03;;;;;;;7.89;95.11;100085.81;6030990;23;20023;-69
2022/12/30 12:01:15;;;;;;;4.00;3.80;;;;;;;8.29;94.76;100149.09;6054055;23;20049;-70
2022/12/30 12:03:57;;;;;;;4.00;3.80;;;;;;;8.22;93.67;100152.97;6032033;23;20288;-69
2022/12/30 12:06:24;;;;;;;4.50;4.20;;;;;;;8.19;94.05;100095.59;6056615;23;20076;-69
2022/12/30 12:09:02;;;;;;;5.13;4.22;;;;;;;7.66;94.39;100002.53;6060113;23;20026;-69
2022/12/30 12:11:42;;;;;;;4.03;3.83;;;;;;;8.25;94.48;100104.91;6047330;23;20048;-71
2022/12/30 12:14:22;;;;;;;4.45;4.25;;;;;;;7.81;94.22;100045.34;6038485;23;20027;-69
2022/12/30 12:17:04;;;;;;;4.10;3.88;;;;;;;8.19;95.21;100112.13;6053004;23;20048;-69
2022/12/30 12:19:46;;;;;;;4.47;4.15;;;;;;;8.01;95.44;100078.28;6034630;23;20118;-70
2022/12/30 12:22:25;;;;;;;4.88;4.43;;;;;;;8.23;95.48;100094.53;6058520;23;20089;-70
2022/12/30 12:24:59;;;;;;;4.50;4.20;;;;;;;7.69;95.13;100007.63;6057187;23;20029;-70
2022/12/30 12:27:26;;;;;;;3.90;3.70;;;;;;;8.23;95.29;100070.16;6035817;23;20026;-69
2022/12/30 12:29:55;;;;;;;4.00;3.80;;;;;;;8.27;94.71;100063.84;6058522;23;20462;-69
2022/12/30 12:32:41;;;;;;;4.50;4.30;;;;;;;6.91;94.34;99832.38;6033023;23;20163;-69
2022/12/30 12:35:34;;;;;;;4.10;3.90;;;;;;;8.35;94.11;100054.66;6056621;23;20054;-70